sensor_id;sensor_type;location;lat;lon;timestamp;P1;durP1;ratioP1;P2;durP2;ratioP2
65996;SDS011;52765;52.258;21.052;2022-08-01T00:01:53;9.57;;;4.28;;
65996;SDS011;52765;52.258;21.052;2022-08-01T00:04:19;8.48;;;4.50;;
65996;SDS011;52765;52.258;21.052;2022-08-01T00:06:45;10.85;;;4.07;;
65996;SDS011;52765;52.258;21.052;2022-08-01T00:09:10;10.48;;;4.43;;
65996;SDS011;52765;52.258;21.052;2022-08-01T00:11:36;9.20;;;4.95;;
65996;SDS011;52765;52.258;21.052;2022-08-01T00:14:02;8.48;;;4.30;;
65996;SDS011;52765;52.258;21.052;2022-08-01T00:16:27;8.65;;;4.18;;
65996;SDS011;52765;52.258;21.052;2022-08-01T00:18:53;9.15;;;4.40;;
65996;SDS011;52765;52.258;21.052;2022-08-01T00:21:19;8.98;;;4.40;;
65996;SDS011;52765;52.258;21.052;2022-08-01T00:23:44;8.15;;;3.30;;
65996;SDS011;52765;52.258;21.052;2022-08-01T00:26:13;8.18;;;4.18;;
65996;SDS011;52765;52.258;21.052;2022-08-01T00:28:39;7.47;;;3.50;;
65996;SDS011;52765;52.258;21.052;2022-08-01T00:31:05;6.50;;;3.40;;
65996;SDS011;52765;52.258;21.052;2022-08-01T00:33:31;6.45;;;3.55;;
65996;SDS011;52765;52.258;21.052;2022-08-01T00:35:56;6.72;;;3.30;;
65996;SDS011;52765;52.258;21.052;2022-08-01T00:38:22;10.27;;;3.67;;
65996;SDS011;52765;52.258;21.052;2022-08-01T00:40:47;5.85;;;3.08;;
65996;SDS011;52765;52.258;21.052;2022-08-01T00:43:13;6.22;;;3.65;;
65996;SDS011;52765;52.258;21.052;2022-08-01T00:45:40;5.53;;;2.85;;
65996;SDS011;52765;52.258;21.052;2022-08-01T00:48:05;5.43;;;3.08;;
65996;SDS011;52765;52.258;21.052;2022-08-01T00:50:31;5.38;;;3.35;;
65996;SDS011;52765;52.258;21.052;2022-08-01T00:52:57;7.47;;;3.83;;
65996;SDS011;52765;52.258;21.052;2022-08-01T00:55:24;9.00;;;3.50;;
65996;SDS011;52765;52.258;21.052;2022-08-01T00:57:49;5.85;;;3.20;;
65996;SDS011;52765;52.258;21.052;2022-08-01T01:00:15;6.38;;;3.30;;
65996;SDS011;52765;52.258;21.052;2022-08-01T01:02:42;6.63;;;3.08;;
65996;SDS011;52765;52.258;21.052;2022-08-01T01:05:10;4.88;;;3.40;;
65996;SDS011;52765;52.258;21.052;2022-08-01T01:07:55;7.25;;;3.65;;
65996;SDS011;52765;52.258;21.052;2022-08-01T01:13:26;4.82;;;3.72;;
65996;SDS011;52765;52.258;21.052;2022-08-01T01:16:01;13.10;;;3.67;;
65996;SDS011;52765;52.258;21.052;2022-08-01T01:26:36;7.53;;;3.75;;
65996;SDS011;52765;52.258;21.052;2022-08-01T01:31:55;7.85;;;4.28;;
65996;SDS011;52765;52.258;21.052;2022-08-01T01:34:28;11.63;;;4.40;;
65996;SDS011;52765;52.258;21.052;2022-08-01T01:36:56;13.68;;;5.15;;
65996;SDS011;52765;52.258;21.052;2022-08-01T01:39:25;13.13;;;4.63;;
65996;SDS011;52765;52.258;21.052;2022-08-01T01:41:54;12.02;;;4.95;;
65996;SDS011;52765;52.258;21.052;2022-08-01T01:44:21;13.07;;;4.63;;
65996;SDS011;52765;52.258;21.052;2022-08-01T01:46:47;7.43;;;4.18;;
65996;SDS011;52765;52.258;21.052;2022-08-01T01:49:15;15.20;;;5.72;;
65996;SDS011;52765;52.258;21.052;2022-08-01T01:51:44;8.90;;;4.65;;
65996;SDS011;52765;52.258;21.052;2022-08-01T01:54:13;11.68;;;4.60;;
65996;SDS011;52765;52.258;21.052;2022-08-01T01:56:38;11.38;;;4.28;;
65996;SDS011;52765;52.258;21.052;2022-08-01T01:59:14;7.25;;;4.70;;
65996;SDS011;52765;52.258;21.052;2022-08-01T02:01:43;10.98;;;4.47;;
65996;SDS011;52765;52.258;21.052;2022-08-01T02:04:10;11.75;;;4.35;;
65996;SDS011;52765;52.258;21.052;2022-08-01T02:06:36;9.82;;;4.57;;
65996;SDS011;52765;52.258;21.052;2022-08-01T02:09:03;8.35;;;4.28;;
65996;SDS011;52765;52.258;21.052;2022-08-01T02:11:29;7.15;;;4.18;;
65996;SDS011;52765;52.258;21.052;2022-08-01T02:13:57;13.05;;;4.75;;
65996;SDS011;52765;52.258;21.052;2022-08-01T02:16:27;8.23;;;3.47;;
65996;SDS011;52765;52.258;21.052;2022-08-01T02:18:56;11.90;;;4.00;;
65996;SDS011;52765;52.258;21.052;2022-08-01T02:27:10;10.00;;;3.70;;
65996;SDS011;52765;52.258;21.052;2022-08-01T02:30:00;6.30;;;3.42;;
65996;SDS011;52765;52.258;21.052;2022-08-01T02:32:31;8.68;;;3.38;;
65996;SDS011;52765;52.258;21.052;2022-08-01T02:35:02;5.55;;;3.17;;
65996;SDS011;52765;52.258;21.052;2022-08-01T02:37:33;3.85;;;3.22;;
65996;SDS011;52765;52.258;21.052;2022-08-01T02:40:01;5.60;;;3.08;;
65996;SDS011;52765;52.258;21.052;2022-08-01T02:42:27;7.57;;;3.20;;
65996;SDS011;52765;52.258;21.052;2022-08-01T02:44:55;5.85;;;3.67;;
65996;SDS011;52765;52.258;21.052;2022-08-01T02:47:22;8.35;;;3.58;;
65996;SDS011;52765;52.258;21.052;2022-08-01T02:49:50;8.85;;;3.25;;
65996;SDS011;52765;52.258;21.052;2022-08-01T02:52:17;9.38;;;3.17;;
65996;SDS011;52765;52.258;21.052;2022-08-01T02:54:45;5.93;;;3.40;;
65996;SDS011;52765;52.258;21.052;2022-08-01T02:57:13;8.88;;;3.22;;
65996;SDS011;52765;52.258;21.052;2022-08-01T02:59:41;15.02;;;4.00;;
65996;SDS011;52765;52.258;21.052;2022-08-01T03:02:07;2.97;;;2.67;;
65996;SDS011;52765;52.258;21.052;2022-08-01T03:04:35;7.47;;;3.28;;
65996;SDS011;52765;52.258;21.052;2022-08-01T03:07:03;7.20;;;3.13;;
65996;SDS011;52765;52.258;21.052;2022-08-01T03:09:32;7.72;;;3.33;;
65996;SDS011;52765;52.258;21.052;2022-08-01T03:12:02;4.47;;;3.05;;
65996;SDS011;52765;52.258;21.052;2022-08-01T03:14:31;11.27;;;3.30;;
65996;SDS011;52765;52.258;21.052;2022-08-01T03:17:00;6.15;;;3.30;;
65996;SDS011;52765;52.258;21.052;2022-08-01T03:19:27;6.70;;;3.78;;
65996;SDS011;52765;52.258;21.052;2022-08-01T03:21:55;7.60;;;3.67;;
65996;SDS011;52765;52.258;21.052;2022-08-01T03:24:28;6.43;;;3.70;;
65996;SDS011;52765;52.258;21.052;2022-08-01T03:26:56;6.18;;;3.30;;
65996;SDS011;52765;52.258;21.052;2022-08-01T03:29:23;5.15;;;3.53;;
65996;SDS011;52765;52.258;21.052;2022-08-01T03:31:54;9.40;;;4.18;;
65996;SDS011;52765;52.258;21.052;2022-08-01T03:34:22;7.25;;;4.05;;
65996;SDS011;52765;52.258;21.052;2022-08-01T03:36:48;9.10;;;3.83;;
65996;SDS011;52765;52.258;21.052;2022-08-01T03:39:21;7.95;;;3.85;;
65996;SDS011;52765;52.258;21.052;2022-08-01T03:41:57;14.82;;;4.90;;
65996;SDS011;52765;52.258;21.052;2022-08-01T03:44:29;11.25;;;4.47;;
65996;SDS011;52765;52.258;21.052;2022-08-01T03:46:59;7.15;;;4.50;;
65996;SDS011;52765;52.258;21.052;2022-08-01T03:49:31;9.40;;;4.05;;
65996;SDS011;52765;52.258;21.052;2022-08-01T03:51:58;9.07;;;4.38;;
65996;SDS011;52765;52.258;21.052;2022-08-01T03:54:28;8.38;;;4.70;;
65996;SDS011;52765;52.258;21.052;2022-08-01T03:56:55;9.40;;;4.18;;
65996;SDS011;52765;52.258;21.052;2022-08-01T03:59:23;6.97;;;4.43;;
65996;SDS011;52765;52.258;21.052;2022-08-01T04:01:50;7.85;;;4.75;;
65996;SDS011;52765;52.258;21.052;2022-08-01T04:04:16;11.30;;;4.45;;
65996;SDS011;52765;52.258;21.052;2022-08-01T04:06:41;9.00;;;5.38;;
65996;SDS011;52765;52.258;21.052;2022-08-01T04:09:09;8.93;;;4.90;;
65996;SDS011;52765;52.258;21.052;2022-08-01T04:11:35;12.60;;;5.40;;
65996;SDS011;52765;52.258;21.052;2022-08-01T04:14:01;13.50;;;6.20;;
65996;SDS011;52765;52.258;21.052;2022-08-01T04:16:28;11.70;;;5.47;;
65996;SDS011;52765;52.258;21.052;2022-08-01T04:18:54;11.45;;;6.45;;
65996;SDS011;52765;52.258;21.052;2022-08-01T04:21:20;13.10;;;6.30;;
65996;SDS011;52765;52.258;21.052;2022-08-01T04:23:50;10.02;;;5.50;;
65996;SDS011;52765;52.258;21.052;2022-08-01T04:26:18;11.55;;;5.38;;
65996;SDS011;52765;52.258;21.052;2022-08-01T04:28:45;14.82;;;5.47;;
65996;SDS011;52765;52.258;21.052;2022-08-01T04:31:12;14.20;;;6.03;;
65996;SDS011;52765;52.258;21.052;2022-08-01T04:33:42;15.40;;;5.75;;
65996;SDS011;52765;52.258;21.052;2022-08-01T04:36:11;18.42;;;6.65;;
65996;SDS011;52765;52.258;21.052;2022-08-01T04:38:42;19.05;;;6.75;;
65996;SDS011;52765;52.258;21.052;2022-08-01T04:41:12;18.88;;;6.97;;
65996;SDS011;52765;52.258;21.052;2022-08-01T04:43:38;17.30;;;6.65;;
65996;SDS011;52765;52.258;21.052;2022-08-01T04:46:05;13.32;;;5.75;;
65996;SDS011;52765;52.258;21.052;2022-08-01T04:48:33;15.20;;;6.72;;
65996;SDS011;52765;52.258;21.052;2022-08-01T04:51:01;15.77;;;6.10;;
65996;SDS011;52765;52.258;21.052;2022-08-01T04:53:27;12.55;;;6.22;;
65996;SDS011;52765;52.258;21.052;2022-08-01T04:55:53;13.55;;;5.45;;
65996;SDS011;52765;52.258;21.052;2022-08-01T04:58:18;9.57;;;5.53;;
65996;SDS011;52765;52.258;21.052;2022-08-01T05:00:44;12.13;;;4.93;;
65996;SDS011;52765;52.258;21.052;2022-08-01T05:03:10;10.93;;;5.10;;
65996;SDS011;52765;52.258;21.052;2022-08-01T05:05:36;8.63;;;5.15;;
65996;SDS011;52765;52.258;21.052;2022-08-01T05:08:01;11.52;;;5.88;;
65996;SDS011;52765;52.258;21.052;2022-08-01T05:10:27;14.63;;;5.20;;
65996;SDS011;52765;52.258;21.052;2022-08-01T05:12:53;9.73;;;5.75;;
65996;SDS011;52765;52.258;21.052;2022-08-01T05:15:19;13.40;;;5.53;;
65996;SDS011;52765;52.258;21.052;2022-08-01T05:17:44;12.07;;;6.30;;
65996;SDS011;52765;52.258;21.052;2022-08-01T05:20:11;15.95;;;6.47;;
65996;SDS011;52765;52.258;21.052;2022-08-01T05:22:37;13.10;;;5.72;;
65996;SDS011;52765;52.258;21.052;2022-08-01T05:25:03;12.35;;;6.47;;
65996;SDS011;52765;52.258;21.052;2022-08-01T05:27:30;17.73;;;7.05;;
65996;SDS011;52765;52.258;21.052;2022-08-01T05:29:56;18.85;;;8.82;;
65996;SDS011;52765;52.258;21.052;2022-08-01T05:32:25;25.25;;;9.07;;
65996;SDS011;52765;52.258;21.052;2022-08-01T05:34:50;21.58;;;9.00;;
65996;SDS011;52765;52.258;21.052;2022-08-01T05:37:16;21.92;;;8.90;;
65996;SDS011;52765;52.258;21.052;2022-08-01T05:39:41;17.77;;;8.60;;
65996;SDS011;52765;52.258;21.052;2022-08-01T05:42:07;21.77;;;7.57;;
65996;SDS011;52765;52.258;21.052;2022-08-01T05:44:32;19.58;;;7.50;;
65996;SDS011;52765;52.258;21.052;2022-08-01T05:46:59;14.48;;;7.03;;
65996;SDS011;52765;52.258;21.052;2022-08-01T05:49:25;16.23;;;7.15;;
65996;SDS011;52765;52.258;21.052;2022-08-01T05:51:50;16.15;;;6.85;;
65996;SDS011;52765;52.258;21.052;2022-08-01T05:54:15;15.80;;;6.55;;
65996;SDS011;52765;52.258;21.052;2022-08-01T05:56:41;12.82;;;5.57;;
65996;SDS011;52765;52.258;21.052;2022-08-01T05:59:06;14.50;;;5.80;;
65996;SDS011;52765;52.258;21.052;2022-08-01T06:01:32;12.60;;;5.55;;
65996;SDS011;52765;52.258;21.052;2022-08-01T06:03:57;17.30;;;6.78;;
65996;SDS011;52765;52.258;21.052;2022-08-01T06:06:23;19.20;;;6.55;;
65996;SDS011;52765;52.258;21.052;2022-08-01T06:08:49;15.52;;;6.80;;
65996;SDS011;52765;52.258;21.052;2022-08-01T06:11:15;17.23;;;6.72;;
65996;SDS011;52765;52.258;21.052;2022-08-01T06:13:43;14.70;;;6.22;;
65996;SDS011;52765;52.258;21.052;2022-08-01T06:16:09;16.10;;;6.22;;
65996;SDS011;52765;52.258;21.052;2022-08-01T06:18:34;20.02;;;7.50;;
65996;SDS011;52765;52.258;21.052;2022-08-01T06:21:00;22.60;;;7.50;;
65996;SDS011;52765;52.258;21.052;2022-08-01T06:23:26;19.80;;;6.35;;
65996;SDS011;52765;52.258;21.052;2022-08-01T06:25:54;15.57;;;5.97;;
65996;SDS011;52765;52.258;21.052;2022-08-01T06:28:20;16.75;;;6.43;;
65996;SDS011;52765;52.258;21.052;2022-08-01T06:30:48;16.38;;;5.90;;
65996;SDS011;52765;52.258;21.052;2022-08-01T06:33:14;15.05;;;5.88;;
65996;SDS011;52765;52.258;21.052;2022-08-01T06:35:39;13.52;;;4.57;;
65996;SDS011;52765;52.258;21.052;2022-08-01T06:38:05;8.15;;;4.18;;
65996;SDS011;52765;52.258;21.052;2022-08-01T06:40:30;8.40;;;3.72;;
65996;SDS011;52765;52.258;21.052;2022-08-01T06:42:56;13.32;;;3.85;;
65996;SDS011;52765;52.258;21.052;2022-08-01T06:45:21;5.38;;;3.42;;
65996;SDS011;52765;52.258;21.052;2022-08-01T06:47:52;8.52;;;3.55;;
65996;SDS011;52765;52.258;21.052;2022-08-01T06:50:19;7.20;;;3.72;;
65996;SDS011;52765;52.258;21.052;2022-08-01T06:52:45;8.20;;;3.70;;
65996;SDS011;52765;52.258;21.052;2022-08-01T06:55:11;7.63;;;4.18;;
65996;SDS011;52765;52.258;21.052;2022-08-01T06:57:45;6.78;;;3.72;;
65996;SDS011;52765;52.258;21.052;2022-08-01T07:00:11;5.68;;;2.63;;
65996;SDS011;52765;52.258;21.052;2022-08-01T07:02:38;9.75;;;3.85;;
65996;SDS011;52765;52.258;21.052;2022-08-01T07:05:03;6.30;;;3.67;;
65996;SDS011;52765;52.258;21.052;2022-08-01T07:07:30;5.90;;;3.47;;
65996;SDS011;52765;52.258;21.052;2022-08-01T07:09:58;4.32;;;2.38;;
65996;SDS011;52765;52.258;21.052;2022-08-01T07:12:24;5.78;;;2.75;;
65996;SDS011;52765;52.258;21.052;2022-08-01T07:14:49;9.52;;;3.03;;
65996;SDS011;52765;52.258;21.052;2022-08-01T07:17:15;7.60;;;3.25;;
65996;SDS011;52765;52.258;21.052;2022-08-01T07:19:40;7.47;;;3.55;;
65996;SDS011;52765;52.258;21.052;2022-08-01T07:22:06;5.43;;;2.50;;
65996;SDS011;52765;52.258;21.052;2022-08-01T07:24:32;8.88;;;4.35;;
65996;SDS011;52765;52.258;21.052;2022-08-01T07:26:57;6.03;;;2.72;;
65996;SDS011;52765;52.258;21.052;2022-08-01T07:29:23;4.72;;;1.92;;
65996;SDS011;52765;52.258;21.052;2022-08-01T07:31:54;3.58;;;1.95;;
65996;SDS011;52765;52.258;21.052;2022-08-01T07:34:22;5.75;;;2.47;;
65996;SDS011;52765;52.258;21.052;2022-08-01T07:36:48;9.05;;;2.47;;
65996;SDS011;52765;52.258;21.052;2022-08-01T07:39:17;6.55;;;2.13;;
65996;SDS011;52765;52.258;21.052;2022-08-01T07:41:43;4.80;;;2.10;;
65996;SDS011;52765;52.258;21.052;2022-08-01T07:44:08;5.68;;;2.15;;
65996;SDS011;52765;52.258;21.052;2022-08-01T07:46:34;4.15;;;2.38;;
65996;SDS011;52765;52.258;21.052;2022-08-01T07:49:00;7.03;;;2.40;;
65996;SDS011;52765;52.258;21.052;2022-08-01T07:51:28;4.75;;;2.10;;
65996;SDS011;52765;52.258;21.052;2022-08-01T07:53:56;2.78;;;1.98;;
65996;SDS011;52765;52.258;21.052;2022-08-01T07:56:22;6.30;;;2.38;;
65996;SDS011;52765;52.258;21.052;2022-08-01T07:58:49;6.72;;;1.90;;
65996;SDS011;52765;52.258;21.052;2022-08-01T08:01:14;7.05;;;2.08;;
65996;SDS011;52765;52.258;21.052;2022-08-01T08:03:40;4.05;;;1.70;;
65996;SDS011;52765;52.258;21.052;2022-08-01T08:06:05;3.10;;;2.00;;
65996;SDS011;52765;52.258;21.052;2022-08-01T08:08:31;2.58;;;1.95;;
65996;SDS011;52765;52.258;21.052;2022-08-01T08:10:57;5.00;;;1.90;;
65996;SDS011;52765;52.258;21.052;2022-08-01T08:13:22;3.78;;;1.92;;
65996;SDS011;52765;52.258;21.052;2022-08-01T08:15:48;3.80;;;1.77;;
65996;SDS011;52765;52.258;21.052;2022-08-01T08:18:14;3.72;;;1.67;;
65996;SDS011;52765;52.258;21.052;2022-08-01T08:20:39;5.05;;;1.83;;
65996;SDS011;52765;52.258;21.052;2022-08-01T08:23:05;5.43;;;2.03;;
65996;SDS011;52765;52.258;21.052;2022-08-01T08:25:50;3.15;;;1.70;;
65996;SDS011;52765;52.258;21.052;2022-08-01T08:28:15;4.05;;;1.65;;
65996;SDS011;52765;52.258;21.052;2022-08-01T08:30:41;4.28;;;1.48;;
65996;SDS011;52765;52.258;21.052;2022-08-01T08:33:06;3.95;;;2.10;;
65996;SDS011;52765;52.258;21.052;2022-08-01T08:35:32;3.92;;;1.92;;
65996;SDS011;52765;52.258;21.052;2022-08-01T08:37:57;4.80;;;2.00;;
65996;SDS011;52765;52.258;21.052;2022-08-01T08:40:23;5.28;;;1.52;;
65996;SDS011;52765;52.258;21.052;2022-08-01T08:42:54;4.47;;;1.80;;
65996;SDS011;52765;52.258;21.052;2022-08-01T08:45:21;3.65;;;1.67;;
65996;SDS011;52765;52.258;21.052;2022-08-01T08:47:47;4.93;;;1.42;;
65996;SDS011;52765;52.258;21.052;2022-08-01T08:50:17;2.60;;;1.50;;
65996;SDS011;52765;52.258;21.052;2022-08-01T08:52:42;3.72;;;1.58;;
65996;SDS011;52765;52.258;21.052;2022-08-01T08:55:09;4.57;;;1.90;;
65996;SDS011;52765;52.258;21.052;2022-08-01T08:57:38;3.03;;;1.73;;
65996;SDS011;52765;52.258;21.052;2022-08-01T09:00:06;4.63;;;1.73;;
65996;SDS011;52765;52.258;21.052;2022-08-01T09:02:32;7.53;;;1.90;;
65996;SDS011;52765;52.258;21.052;2022-08-01T09:04:57;3.20;;;2.00;;
65996;SDS011;52765;52.258;21.052;2022-08-01T09:07:23;3.80;;;1.60;;
65996;SDS011;52765;52.258;21.052;2022-08-01T09:09:51;4.13;;;1.45;;
65996;SDS011;52765;52.258;21.052;2022-08-01T09:12:17;3.67;;;1.60;;
65996;SDS011;52765;52.258;21.052;2022-08-01T09:14:44;6.40;;;2.53;;
65996;SDS011;52765;52.258;21.052;2022-08-01T09:17:11;7.05;;;3.05;;
65996;SDS011;52765;52.258;21.052;2022-08-01T09:19:39;10.15;;;2.00;;
65996;SDS011;52765;52.258;21.052;2022-08-01T09:22:08;5.53;;;1.80;;
65996;SDS011;52765;52.258;21.052;2022-08-01T09:24:36;4.15;;;1.77;;
65996;SDS011;52765;52.258;21.052;2022-08-01T09:27:15;5.82;;;1.90;;
65996;SDS011;52765;52.258;21.052;2022-08-01T09:29:46;6.85;;;1.80;;
65996;SDS011;52765;52.258;21.052;2022-08-01T09:32:12;3.40;;;1.75;;
65996;SDS011;52765;52.258;21.052;2022-08-01T09:34:37;4.47;;;2.10;;
65996;SDS011;52765;52.258;21.052;2022-08-01T09:37:03;4.38;;;1.80;;
65996;SDS011;52765;52.258;21.052;2022-08-01T09:39:35;8.70;;;2.08;;
65996;SDS011;52765;52.258;21.052;2022-08-01T09:42:24;3.72;;;1.67;;
65996;SDS011;52765;52.258;21.052;2022-08-01T09:44:52;10.25;;;2.25;;
65996;SDS011;52765;52.258;21.052;2022-08-01T09:47:18;5.15;;;1.92;;
65996;SDS011;52765;52.258;21.052;2022-08-01T09:49:45;6.22;;;1.73;;
65996;SDS011;52765;52.258;21.052;2022-08-01T09:52:20;4.05;;;2.60;;
65996;SDS011;52765;52.258;21.052;2022-08-01T09:54:57;7.25;;;1.90;;
65996;SDS011;52765;52.258;21.052;2022-08-01T09:57:25;3.55;;;1.30;;
65996;SDS011;52765;52.258;21.052;2022-08-01T09:59:56;5.53;;;1.58;;
65996;SDS011;52765;52.258;21.052;2022-08-01T10:02:36;4.50;;;1.60;;
65996;SDS011;52765;52.258;21.052;2022-08-01T10:05:06;6.93;;;1.50;;
65996;SDS011;52765;52.258;21.052;2022-08-01T10:07:35;5.57;;;1.27;;
65996;SDS011;52765;52.258;21.052;2022-08-01T10:10:19;6.32;;;1.73;;
65996;SDS011;52765;52.258;21.052;2022-08-01T10:12:45;5.25;;;1.38;;
65996;SDS011;52765;52.258;21.052;2022-08-01T10:15:13;2.47;;;1.40;;
65996;SDS011;52765;52.258;21.052;2022-08-01T10:17:50;6.20;;;1.40;;
65996;SDS011;52765;52.258;21.052;2022-08-01T10:20:31;5.35;;;1.88;;
65996;SDS011;52765;52.258;21.052;2022-08-01T10:22:58;6.30;;;2.17;;
65996;SDS011;52765;52.258;21.052;2022-08-01T10:25:27;5.05;;;1.88;;
65996;SDS011;52765;52.258;21.052;2022-08-01T10:27:53;4.60;;;1.92;;
65996;SDS011;52765;52.258;21.052;2022-08-01T10:30:23;4.10;;;2.13;;
65996;SDS011;52765;52.258;21.052;2022-08-01T10:32:50;3.05;;;1.80;;
65996;SDS011;52765;52.258;21.052;2022-08-01T10:35:18;5.28;;;1.50;;
65996;SDS011;52765;52.258;21.052;2022-08-01T10:37:45;5.50;;;1.80;;
65996;SDS011;52765;52.258;21.052;2022-08-01T10:40:12;4.68;;;1.85;;
65996;SDS011;52765;52.258;21.052;2022-08-01T10:42:42;3.17;;;1.52;;
65996;SDS011;52765;52.258;21.052;2022-08-01T10:45:09;3.58;;;1.48;;
65996;SDS011;52765;52.258;21.052;2022-08-01T10:47:56;2.10;;;1.17;;
65996;SDS011;52765;52.258;21.052;2022-08-01T10:50:28;3.90;;;1.80;;
65996;SDS011;52765;52.258;21.052;2022-08-01T10:53:14;5.15;;;1.55;;
65996;SDS011;52765;52.258;21.052;2022-08-01T10:55:57;3.75;;;1.98;;
65996;SDS011;52765;52.258;21.052;2022-08-01T10:58:31;4.38;;;1.33;;
65996;SDS011;52765;52.258;21.052;2022-08-01T11:03:40;2.80;;;1.52;;
65996;SDS011;52765;52.258;21.052;2022-08-01T11:06:07;4.03;;;2.05;;
65996;SDS011;52765;52.258;21.052;2022-08-01T11:08:51;5.85;;;1.73;;
65996;SDS011;52765;52.258;21.052;2022-08-01T11:11:19;3.50;;;1.63;;
65996;SDS011;52765;52.258;21.052;2022-08-01T11:19:07;3.13;;;1.40;;
65996;SDS011;52765;52.258;21.052;2022-08-01T11:22:06;2.45;;;1.50;;
65996;SDS011;52765;52.258;21.052;2022-08-01T11:27:21;3.27;;;1.17;;
65996;SDS011;52765;52.258;21.052;2022-08-01T11:32:47;2.55;;;1.80;;
65996;SDS011;52765;52.258;21.052;2022-08-01T11:35:15;2.17;;;1.17;;
65996;SDS011;52765;52.258;21.052;2022-08-01T11:37:41;3.08;;;1.70;;
65996;SDS011;52765;52.258;21.052;2022-08-01T11:40:20;4.65;;;1.70;;
65996;SDS011;52765;52.258;21.052;2022-08-01T11:42:47;4.63;;;1.80;;
65996;SDS011;52765;52.258;21.052;2022-08-01T11:45:14;6.10;;;1.85;;
65996;SDS011;52765;52.258;21.052;2022-08-01T11:47:47;4.10;;;2.13;;
65996;SDS011;52765;52.258;21.052;2022-08-01T11:53:11;4.13;;;1.85;;
65996;SDS011;52765;52.258;21.052;2022-08-01T11:55:43;4.95;;;1.90;;
65996;SDS011;52765;52.258;21.052;2022-08-01T11:58:12;3.38;;;1.40;;
65996;SDS011;52765;52.258;21.052;2022-08-01T12:00:38;2.85;;;1.75;;
65996;SDS011;52765;52.258;21.052;2022-08-01T12:03:06;4.45;;;1.77;;
65996;SDS011;52765;52.258;21.052;2022-08-01T12:05:34;3.97;;;1.83;;
65996;SDS011;52765;52.258;21.052;2022-08-01T12:08:02;6.63;;;2.00;;
65996;SDS011;52765;52.258;21.052;2022-08-01T12:10:30;5.90;;;1.85;;
65996;SDS011;52765;52.258;21.052;2022-08-01T12:13:03;3.80;;;1.92;;
65996;SDS011;52765;52.258;21.052;2022-08-01T12:15:32;2.72;;;1.70;;
65996;SDS011;52765;52.258;21.052;2022-08-01T12:18:00;4.03;;;2.20;;
65996;SDS011;52765;52.258;21.052;2022-08-01T12:20:30;5.38;;;2.17;;
65996;SDS011;52765;52.258;21.052;2022-08-01T12:22:59;3.03;;;1.80;;
65996;SDS011;52765;52.258;21.052;2022-08-01T12:25:27;3.90;;;1.52;;
65996;SDS011;52765;52.258;21.052;2022-08-01T12:27:54;3.25;;;2.10;;
65996;SDS011;52765;52.258;21.052;2022-08-01T12:30:22;2.78;;;1.52;;
65996;SDS011;52765;52.258;21.052;2022-08-01T12:32:49;5.20;;;1.65;;
65996;SDS011;52765;52.258;21.052;2022-08-01T12:35:16;10.85;;;1.88;;
65996;SDS011;52765;52.258;21.052;2022-08-01T12:37:46;10.32;;;2.60;;
65996;SDS011;52765;52.258;21.052;2022-08-01T12:40:15;6.35;;;2.00;;
65996;SDS011;52765;52.258;21.052;2022-08-01T12:42:43;3.22;;;1.90;;
65996;SDS011;52765;52.258;21.052;2022-08-01T12:45:12;3.47;;;1.98;;
65996;SDS011;52765;52.258;21.052;2022-08-01T12:47:40;2.78;;;1.50;;
65996;SDS011;52765;52.258;21.052;2022-08-01T12:50:07;9.68;;;8.18;;
65996;SDS011;52765;52.258;21.052;2022-08-01T12:52:37;12.93;;;8.60;;
65996;SDS011;52765;52.258;21.052;2022-08-01T12:55:08;5.25;;;2.00;;
65996;SDS011;52765;52.258;21.052;2022-08-01T12:57:39;3.45;;;2.15;;
65996;SDS011;52765;52.258;21.052;2022-08-01T13:02:42;4.75;;;2.20;;
65996;SDS011;52765;52.258;21.052;2022-08-01T13:05:09;3.80;;;1.98;;
65996;SDS011;52765;52.258;21.052;2022-08-01T13:07:40;5.07;;;1.80;;
65996;SDS011;52765;52.258;21.052;2022-08-01T13:10:23;4.95;;;2.25;;
65996;SDS011;52765;52.258;21.052;2022-08-01T13:12:51;6.32;;;2.15;;
65996;SDS011;52765;52.258;21.052;2022-08-01T13:17:49;3.67;;;1.58;;
65996;SDS011;52765;52.258;21.052;2022-08-01T13:20:23;4.88;;;1.83;;
65996;SDS011;52765;52.258;21.052;2022-08-01T13:25:16;6.43;;;2.13;;
65996;SDS011;52765;52.258;21.052;2022-08-01T13:27:43;4.88;;;2.00;;
65996;SDS011;52765;52.258;21.052;2022-08-01T13:30:16;4.68;;;2.10;;
65996;SDS011;52765;52.258;21.052;2022-08-01T13:32:44;2.92;;;1.55;;
65996;SDS011;52765;52.258;21.052;2022-08-01T13:35:30;3.58;;;1.60;;
65996;SDS011;52765;52.258;21.052;2022-08-01T13:37:55;3.72;;;1.60;;
65996;SDS011;52765;52.258;21.052;2022-08-01T13:40:25;2.47;;;1.67;;
65996;SDS011;52765;52.258;21.052;2022-08-01T13:42:55;3.53;;;1.70;;
65996;SDS011;52765;52.258;21.052;2022-08-01T13:45:21;3.65;;;2.08;;
65996;SDS011;52765;52.258;21.052;2022-08-01T13:47:47;4.95;;;2.35;;
65996;SDS011;52765;52.258;21.052;2022-08-01T13:50:14;4.75;;;2.15;;
65996;SDS011;52765;52.258;21.052;2022-08-01T13:52:40;3.72;;;2.15;;
65996;SDS011;52765;52.258;21.052;2022-08-01T13:55:05;3.92;;;2.20;;
65996;SDS011;52765;52.258;21.052;2022-08-01T13:57:31;5.60;;;2.60;;
65996;SDS011;52765;52.258;21.052;2022-08-01T13:59:57;7.97;;;2.83;;
65996;SDS011;52765;52.258;21.052;2022-08-01T14:02:25;5.13;;;2.78;;
65996;SDS011;52765;52.258;21.052;2022-08-01T14:04:53;2.85;;;2.55;;
65996;SDS011;52765;52.258;21.052;2022-08-01T14:07:23;3.47;;;2.80;;
65996;SDS011;52765;52.258;21.052;2022-08-01T14:09:49;4.63;;;2.97;;
65996;SDS011;52765;52.258;21.052;2022-08-01T14:12:15;4.80;;;2.55;;
65996;SDS011;52765;52.258;21.052;2022-08-01T14:14:40;3.03;;;2.33;;
65996;SDS011;52765;52.258;21.052;2022-08-01T14:17:06;3.22;;;2.38;;
65996;SDS011;52765;52.258;21.052;2022-08-01T14:19:31;3.65;;;2.47;;
65996;SDS011;52765;52.258;21.052;2022-08-01T14:21:57;4.45;;;2.67;;
65996;SDS011;52765;52.258;21.052;2022-08-01T14:24:23;3.83;;;2.85;;
65996;SDS011;52765;52.258;21.052;2022-08-01T14:26:49;6.65;;;3.05;;
65996;SDS011;52765;52.258;21.052;2022-08-01T14:29:15;5.43;;;2.85;;
65996;SDS011;52765;52.258;21.052;2022-08-01T14:31:40;3.95;;;2.85;;
65996;SDS011;52765;52.258;21.052;2022-08-01T14:34:06;2.90;;;2.55;;
65996;SDS011;52765;52.258;21.052;2022-08-01T14:36:31;3.08;;;2.78;;
65996;SDS011;52765;52.258;21.052;2022-08-01T14:38:57;4.82;;;2.70;;
65996;SDS011;52765;52.258;21.052;2022-08-01T14:41:23;3.80;;;2.60;;
65996;SDS011;52765;52.258;21.052;2022-08-01T14:43:48;4.50;;;2.67;;
65996;SDS011;52765;52.258;21.052;2022-08-01T14:46:14;4.82;;;2.20;;
65996;SDS011;52765;52.258;21.052;2022-08-01T14:48:39;5.38;;;1.90;;
65996;SDS011;52765;52.258;21.052;2022-08-01T14:51:05;2.92;;;2.00;;
65996;SDS011;52765;52.258;21.052;2022-08-01T14:53:32;5.28;;;2.40;;
65996;SDS011;52765;52.258;21.052;2022-08-01T14:55:58;4.55;;;2.17;;
65996;SDS011;52765;52.258;21.052;2022-08-01T14:58:24;7.35;;;4.50;;
65996;SDS011;52765;52.258;21.052;2022-08-01T15:00:49;3.80;;;3.13;;
65996;SDS011;52765;52.258;21.052;2022-08-01T15:03:19;5.90;;;2.47;;
65996;SDS011;52765;52.258;21.052;2022-08-01T15:05:45;3.17;;;2.55;;
65996;SDS011;52765;52.258;21.052;2022-08-01T15:08:10;5.80;;;2.80;;
65996;SDS011;52765;52.258;21.052;2022-08-01T15:10:36;4.60;;;2.15;;
65996;SDS011;52765;52.258;21.052;2022-08-01T15:13:01;4.63;;;2.50;;
65996;SDS011;52765;52.258;21.052;2022-08-01T15:15:27;5.35;;;2.40;;
65996;SDS011;52765;52.258;21.052;2022-08-01T15:17:52;3.72;;;2.35;;
65996;SDS011;52765;52.258;21.052;2022-08-01T15:20:18;5.38;;;3.92;;